createdAt,value
2022-10-05T00:00:02.824Z,1.60
2022-10-05T00:05:20.563Z,2.05
2022-10-05T00:10:24.804Z,1.70
2022-10-05T00:15:30.306Z,1.45
2022-10-05T00:20:33.702Z,1.58
2022-10-05T00:25:37.164Z,1.48
2022-10-05T00:30:42.120Z,1.60
2022-10-05T00:35:45.450Z,1.42
2022-10-05T00:41:02.654Z,1.50
2022-10-05T00:46:11.797Z,1.35
2022-10-05T00:51:24.871Z,1.42
2022-10-05T00:56:44.640Z,1.75
2022-10-05T01:01:58.841Z,1.60
2022-10-05T01:07:12.309Z,1.58
2022-10-05T01:12:24.578Z,1.63
2022-10-05T01:17:37.372Z,1.35
2022-10-05T01:23:00.557Z,1.48
2022-10-05T01:28:09.912Z,1.42
2022-10-05T01:33:22.922Z,1.50
2022-10-05T01:38:39.818Z,1.30
2022-10-05T01:43:49.422Z,1.63
2022-10-05T01:49:13.647Z,1.40
2022-10-05T01:54:29.298Z,1.35
2022-10-05T01:59:45.971Z,1.35
2022-10-05T02:05:02.125Z,1.40
2022-10-05T02:10:15.039Z,1.50
2022-10-05T02:15:26.893Z,1.50
2022-10-05T02:20:33.949Z,1.38
2022-10-05T02:25:42.118Z,1.25
2022-10-05T02:30:52.867Z,1.60
2022-10-05T02:36:01.381Z,1.23
2022-10-05T02:41:13.832Z,1.52
2022-10-05T02:46:31.512Z,1.35
2022-10-05T02:51:38.945Z,1.30
2022-10-05T02:56:49.686Z,1.58
2022-10-05T03:02:01.368Z,1.30
2022-10-05T03:07:12.332Z,1.13
2022-10-05T03:12:30.158Z,1.50
2022-10-05T03:17:41.018Z,1.20
2022-10-05T03:22:50.946Z,1.35
2022-10-05T03:28:02.337Z,1.40
2022-10-05T03:33:15.345Z,1.27
2022-10-05T03:38:25.448Z,1.33
2022-10-05T03:44:00.988Z,1.20
2022-10-05T03:49:15.136Z,1.15
2022-10-05T03:54:25.779Z,1.20
2022-10-05T03:59:34.970Z,1.25
2022-10-05T04:04:46.310Z,1.10
2022-10-05T04:09:54.220Z,1.42
2022-10-05T04:15:03.774Z,1.15
2022-10-05T04:20:18.770Z,1.27
2022-10-05T04:25:26.268Z,1.23
2022-10-05T04:30:31.841Z,1.15
2022-10-05T04:35:56.585Z,1.17
2022-10-05T04:41:14.734Z,1.38
2022-10-05T04:46:33.725Z,1.52
2022-10-05T04:51:50.902Z,1.60
2022-10-05T04:57:01.771Z,1.20
2022-10-05T05:02:16.924Z,1.50
2022-10-05T05:07:37.175Z,1.27
2022-10-05T05:12:52.011Z,1.50
2022-10-05T05:18:24.743Z,1.63
2022-10-05T05:23:38.786Z,1.63
2022-10-05T05:28:50.863Z,1.52
2022-10-05T05:34:04.191Z,1.33
2022-10-05T05:39:25.295Z,1.77
2022-10-05T05:44:38.718Z,1.80
2022-10-05T05:50:06.562Z,1.92
2022-10-05T05:55:21.396Z,2.08
2022-10-05T06:00:28.852Z,2.00
2022-10-05T06:05:41.705Z,2.50
2022-10-05T06:10:54.021Z,2.03
2022-10-05T06:16:05.325Z,3.08
2022-10-05T06:21:17.103Z,2.38
2022-10-05T06:26:43.671Z,2.00
2022-10-05T06:32:01.238Z,2.50
2022-10-05T06:37:12.087Z,1.77
2022-10-05T06:42:31.623Z,2.05
2022-10-05T06:48:21.668Z,2.05
2022-10-05T06:54:04.213Z,1.67
2022-10-05T06:59:15.774Z,1.60
2022-10-05T07:04:44.326Z,1.58
2022-10-05T07:10:01.749Z,1.88
2022-10-05T07:15:34.954Z,2.47
2022-10-05T07:20:49.184Z,1.50
2022-10-05T07:26:04.643Z,1.80
2022-10-05T07:31:14.943Z,1.63
2022-10-05T07:36:43.132Z,1.50
2022-10-05T07:41:51.488Z,1.75
2022-10-05T07:47:05.440Z,1.45
2022-10-05T07:52:14.324Z,1.48
2022-10-05T07:57:25.973Z,1.50
2022-10-05T08:02:36.137Z,1.17
2022-10-05T08:07:40.631Z,1.52
2022-10-05T08:12:55.846Z,1.33
2022-10-05T08:18:03.212Z,1.55
2022-10-05T08:23:15.887Z,1.45
2022-10-05T08:28:24.792Z,1.90
2022-10-05T08:33:36.268Z,1.20
2022-10-05T08:38:41.160Z,0.90
2022-10-05T08:44:15.076Z,1.30
2022-10-05T08:49:47.245Z,1.30
2022-10-05T08:55:27.706Z,1.48
2022-10-05T09:00:41.005Z,1.15
2022-10-05T09:06:09.102Z,1.35
2022-10-05T09:11:19.175Z,1.30
2022-10-05T09:16:49.177Z,1.35
2022-10-05T09:21:59.350Z,1.42
2022-10-05T09:27:10.116Z,1.60
2022-10-05T09:32:45.655Z,1.35
2022-10-05T09:38:16.498Z,1.30
2022-10-05T09:43:55.617Z,1.40
2022-10-05T09:49:21.497Z,1.45
2022-10-05T09:55:06.840Z,1.27
2022-10-05T10:00:21.850Z,1.40
2022-10-05T10:05:39.092Z,1.50
2022-10-05T10:10:58.123Z,1.50
2022-10-05T10:16:23.714Z,1.33
2022-10-05T10:21:53.853Z,1.30
2022-10-05T10:27:12.316Z,1.15
2022-10-05T10:32:46.137Z,1.80
2022-10-05T10:38:31.322Z,1.02
2022-10-05T10:44:16.413Z,1.52
2022-10-05T10:49:39.471Z,1.40
2022-10-05T10:55:08.239Z,1.58
2022-10-05T11:00:33.624Z,1.25
2022-10-05T11:06:05.293Z,1.33
2022-10-05T11:11:38.271Z,1.40
2022-10-05T11:17:10.873Z,1.35
2022-10-05T11:22:43.879Z,1.60
2022-10-05T11:28:01.997Z,1.38
2022-10-05T11:33:43.856Z,1.30
2022-10-05T11:39:30.381Z,1.40
2022-10-05T11:45:06.317Z,1.48
2022-10-05T11:50:22.035Z,1.48
2022-10-05T11:55:28.933Z,1.63
2022-10-05T12:00:41.503Z,1.40
2022-10-05T12:06:05.347Z,1.67
2022-10-05T12:11:16.319Z,1.30
2022-10-05T12:16:27.721Z,1.40
2022-10-05T12:21:41.158Z,1.45
2022-10-05T12:26:49.100Z,1.63
2022-10-05T12:32:00.569Z,1.48
2022-10-05T12:37:10.909Z,1.40
2022-10-05T12:42:26.062Z,1.48
2022-10-05T12:47:41.036Z,1.95
2022-10-05T12:53:01.603Z,1.58
2022-10-05T12:58:19.790Z,1.27
2022-10-05T13:03:27.670Z,1.50
2022-10-05T13:08:35.309Z,1.50
2022-10-05T13:13:50.568Z,1.83
2022-10-05T13:19:19.574Z,1.52
2022-10-05T13:24:27.147Z,1.15
2022-10-05T13:29:36.306Z,1.30
2022-10-05T13:34:48.613Z,1.38
2022-10-05T13:40:02.097Z,1.13
2022-10-05T13:45:15.081Z,1.40
2022-10-05T13:50:28.424Z,1.70
2022-10-05T13:55:42.209Z,1.70
2022-10-05T14:00:51.045Z,1.40
2022-10-05T14:05:57.865Z,1.50
2022-10-05T14:11:03.071Z,1.40
2022-10-05T14:16:21.592Z,1.55
2022-10-05T14:21:27.609Z,1.35
2022-10-05T14:26:36.405Z,1.92
2022-10-05T14:31:50.831Z,1.60
2022-10-05T14:37:01.504Z,1.27
2022-10-05T14:42:15.845Z,1.30
2022-10-05T14:47:23.771Z,1.25
2022-10-05T14:52:34.768Z,1.58
2022-10-05T14:57:42.995Z,1.40
2022-10-05T15:03:21.709Z,1.30
2022-10-05T15:08:46.330Z,1.45
2022-10-05T15:13:49.993Z,1.77
2022-10-05T15:19:01.062Z,1.50
2022-10-05T15:24:10.517Z,1.45
2022-10-05T15:29:27.761Z,1.55
2022-10-05T15:34:37.605Z,1.45
2022-10-05T15:39:50.254Z,1.65
2022-10-05T15:45:06.270Z,1.60
2022-10-05T15:50:21.781Z,1.23
2022-10-05T15:55:48.755Z,1.35
2022-10-05T16:00:58.874Z,1.45
2022-10-05T16:06:26.139Z,1.60
2022-10-05T16:11:51.811Z,1.67
2022-10-05T16:17:08.210Z,2.25
2022-10-05T16:22:22.463Z,1.70
2022-10-05T16:27:38.962Z,1.50
2022-10-05T16:32:51.076Z,1.42
2022-10-05T16:38:05.847Z,1.73
2022-10-05T16:43:23.083Z,1.95
2022-10-05T16:48:29.553Z,1.85
2022-10-05T16:53:38.444Z,2.28
2022-10-05T16:58:57.136Z,2.00
2022-10-05T17:04:15.054Z,2.00
2022-10-05T17:09:43.274Z,1.85
2022-10-05T17:15:03.454Z,2.35
2022-10-05T17:20:31.237Z,1.95
2022-10-05T17:25:44.601Z,2.10
2022-10-05T17:31:06.576Z,2.92
2022-10-05T17:36:20.039Z,3.95
2022-10-05T17:41:25.513Z,3.33
2022-10-05T17:46:42.475Z,2.83
2022-10-05T17:52:18.367Z,2.40
2022-10-05T17:57:25.221Z,2.22
2022-10-05T18:02:44.255Z,2.33
2022-10-05T18:07:50.165Z,2.08
2022-10-05T18:13:19.810Z,2.10
2022-10-05T18:18:58.816Z,2.05
2022-10-05T18:24:17.783Z,1.90
2022-10-05T18:29:48.414Z,1.95
2022-10-05T18:35:02.125Z,2.35
2022-10-05T18:40:26.078Z,1.80
2022-10-05T18:45:36.810Z,1.75
2022-10-05T18:50:46.811Z,2.00
2022-10-05T18:55:57.769Z,2.45
2022-10-05T19:01:30.511Z,2.90
2022-10-05T19:06:39.984Z,2.33
2022-10-05T19:11:53.748Z,2.60
2022-10-05T19:17:12.364Z,1.95
2022-10-05T19:22:25.224Z,2.00
2022-10-05T19:27:40.672Z,2.45
2022-10-05T19:33:21.122Z,2.00
2022-10-05T19:38:33.844Z,1.65
2022-10-05T19:44:09.178Z,1.85
2022-10-05T19:49:12.894Z,1.70
2022-10-05T19:54:25.970Z,1.80
2022-10-05T19:59:32.067Z,2.40
2022-10-05T20:04:40.886Z,2.03
2022-10-05T20:09:56.934Z,2.30
2022-10-05T20:15:26.868Z,2.20
2022-10-05T20:20:38.389Z,2.00
2022-10-05T20:25:41.644Z,1.70
2022-10-05T20:30:46.603Z,2.33
2022-10-05T20:35:49.881Z,2.03
2022-10-05T20:40:53.127Z,2.22
2022-10-05T20:45:57.851Z,1.73
2022-10-05T20:51:02.276Z,2.03
2022-10-05T20:56:06.132Z,2.30
2022-10-05T21:01:19.088Z,2.30
2022-10-05T21:06:22.973Z,1.90
2022-10-05T21:11:26.838Z,3.03
2022-10-05T21:16:31.675Z,2.10
2022-10-05T21:21:35.240Z,1.83
2022-10-05T21:26:38.811Z,2.10
2022-10-05T21:31:43.876Z,2.30
2022-10-05T21:36:48.519Z,2.30
2022-10-05T21:41:52.329Z,2.17
2022-10-05T21:46:57.596Z,2.05
2022-10-05T21:52:02.178Z,1.90
2022-10-05T21:57:05.655Z,2.00
2022-10-05T22:02:10.264Z,2.20
2022-10-05T22:07:19.193Z,2.15
2022-10-05T22:12:24.452Z,2.10
2022-10-05T22:17:31.834Z,2.00
2022-10-05T22:22:35.097Z,2.63
2022-10-05T22:27:38.408Z,2.30
2022-10-05T22:32:43.268Z,2.10
2022-10-05T22:37:47.062Z,2.50
2022-10-05T22:42:50.405Z,2.28
2022-10-05T22:47:55.076Z,2.40
2022-10-05T22:52:58.719Z,2.35
2022-10-05T22:58:02.817Z,2.42
2022-10-05T23:03:07.577Z,2.60
2022-10-05T23:08:10.814Z,2.90
2022-10-05T23:13:14.005Z,2.70
2022-10-05T23:18:18.600Z,2.97
2022-10-05T23:23:22.165Z,2.70
2022-10-05T23:28:26.343Z,3.20
2022-10-05T23:33:31.946Z,3.13
2022-10-05T23:38:36.750Z,3.03
2022-10-05T23:43:40.666Z,3.38
2022-10-05T23:48:45.613Z,3.33
2022-10-05T23:53:49.006Z,3.05
2022-10-05T23:58:52.221Z,3.00
